createdAt,value
2023-02-11T00:01:30.746Z,99337.34
2023-02-11T00:03:59.580Z,99329.04
2023-02-11T00:06:29.605Z,99324.42
2023-02-11T00:08:58.051Z,99327.45
2023-02-11T00:11:27.599Z,99328.80
2023-02-11T00:13:56.285Z,99328.95
2023-02-11T00:16:24.581Z,99325.70
2023-02-11T00:18:52.612Z,99326.37
2023-02-11T00:21:23.343Z,99324.98
2023-02-11T00:23:51.731Z,99320.89
2023-02-11T00:26:22.208Z,99317.30
2023-02-11T00:28:52.003Z,99311.20
2023-02-11T00:31:22.190Z,99305.92
2023-02-11T00:33:50.305Z,99291.70
2023-02-11T00:36:21.738Z,99294.23
2023-02-11T00:38:50.908Z,99293.36
2023-02-11T00:41:19.603Z,99292.52
2023-02-11T00:43:47.663Z,99286.59
2023-02-11T00:46:16.679Z,99286.58
2023-02-11T00:48:44.679Z,99283.04
2023-02-11T00:51:13.009Z,99277.10
2023-02-11T00:53:41.055Z,99273.21
2023-02-11T00:56:10.126Z,99261.19
2023-02-11T00:58:38.338Z,99254.94
2023-02-11T01:01:06.724Z,99256.46
2023-02-11T01:03:35.219Z,99253.92
2023-02-11T01:06:03.298Z,99246.10
2023-02-11T01:08:31.603Z,99234.94
2023-02-11T01:11:06.924Z,99226.50
2023-02-11T01:13:36.726Z,99217.72
2023-02-11T01:16:07.267Z,99210.81
2023-02-11T01:18:36.408Z,99198.64
2023-02-11T01:21:04.887Z,99179.55
2023-02-11T01:23:33.481Z,99178.71
2023-02-11T01:26:01.647Z,99175.68
2023-02-11T01:28:31.091Z,99173.84
2023-02-11T01:31:02.465Z,99182.14
2023-02-11T01:33:30.787Z,99192.80
2023-02-11T01:36:04.862Z,99195.85
2023-02-11T01:38:34.487Z,99201.27
2023-02-11T01:41:06.805Z,99204.65
2023-02-11T01:43:38.203Z,99211.58
2023-02-11T01:46:32.846Z,99215.65
2023-02-11T01:49:18.658Z,99213.78
2023-02-11T01:51:55.349Z,99205.48
2023-02-11T01:54:29.386Z,99198.20
2023-02-11T01:57:00.272Z,99190.10
2023-02-11T01:59:33.565Z,99186.39
2023-02-11T02:02:08.454Z,99187.08
2023-02-11T02:04:44.229Z,99192.18
2023-02-11T02:07:22.642Z,99189.15
2023-02-11T02:09:58.287Z,99184.23
2023-02-11T02:12:26.455Z,99183.06
2023-02-11T02:15:31.786Z,99175.10
2023-02-11T02:18:18.345Z,99171.05
2023-02-11T02:21:01.522Z,99162.77
2023-02-11T02:23:48.573Z,99149.56
2023-02-11T02:26:55.369Z,99141.94
2023-02-11T02:29:41.479Z,99129.39
2023-02-11T02:32:12.285Z,99126.35
2023-02-11T02:35:03.883Z,99123.98
2023-02-11T02:37:36.347Z,99118.05
2023-02-11T02:40:11.746Z,99111.27
2023-02-11T02:42:41.825Z,99105.35
2023-02-11T02:45:12.058Z,99107.21
2023-02-11T02:47:40.091Z,99094.84
2023-02-11T02:50:09.289Z,99083.66
2023-02-11T02:53:12.712Z,99072.80
2023-02-11T02:56:18.773Z,99064.34
2023-02-11T02:59:03.073Z,99061.63
2023-02-11T03:01:50.439Z,99070.45
2023-02-11T03:04:34.139Z,99063.66
2023-02-11T03:07:22.144Z,99051.80
2023-02-11T03:10:19.468Z,99041.96
2023-02-11T03:12:48.865Z,99049.26
2023-02-11T03:15:18.407Z,99048.23
2023-02-11T03:17:49.648Z,99054.84
2023-02-11T03:20:20.559Z,99053.84
2023-02-11T03:23:19.270Z,99046.20
2023-02-11T03:26:00.417Z,99043.32
2023-02-11T03:28:31.467Z,99041.96
2023-02-11T03:31:17.964Z,99039.25
2023-02-11T03:34:27.768Z,99033.82
2023-02-11T03:37:33.503Z,99028.56
2023-02-11T03:40:10.138Z,99023.48
2023-02-11T03:42:46.028Z,99019.41
2023-02-11T03:45:18.567Z,99020.61
2023-02-11T03:47:52.082Z,99020.27
2023-02-11T03:50:21.694Z,99015.02
2023-02-11T03:52:50.136Z,99005.17
2023-02-11T03:55:21.067Z,99000.93
2023-02-11T03:57:49.403Z,98995.67
2023-02-11T04:00:17.369Z,98980.40
2023-02-11T04:02:45.550Z,98972.09
2023-02-11T04:05:16.319Z,98965.66
2023-02-11T04:07:44.228Z,98959.53
2023-02-11T04:10:12.522Z,98952.59
2023-02-11T04:12:41.010Z,98940.71
2023-02-11T04:15:09.880Z,98930.85
2023-02-11T04:17:38.315Z,98921.54
2023-02-11T04:20:06.761Z,98915.09
2023-02-11T04:22:34.758Z,98920.50
2023-02-11T04:25:03.497Z,98932.38
2023-02-11T04:27:32.095Z,98944.92
2023-02-11T04:30:00.012Z,98938.13
2023-02-11T04:32:28.318Z,98931.02
2023-02-11T04:34:56.282Z,98936.27
2023-02-11T04:37:24.151Z,98938.14
2023-02-11T04:39:52.059Z,98940.86
2023-02-11T04:42:20.120Z,98941.38
2023-02-11T04:44:48.023Z,98939.85
2023-02-11T04:47:16.046Z,98949.35
2023-02-11T04:49:44.068Z,98948.33
2023-02-11T04:52:12.010Z,98934.77
2023-02-11T04:54:40.312Z,98931.88
2023-02-11T04:57:08.579Z,98928.65
2023-02-11T04:59:36.528Z,98928.83
2023-02-11T05:02:04.521Z,98927.64
2023-02-11T05:04:32.631Z,98924.41
2023-02-11T05:07:00.532Z,98926.45
2023-02-11T05:09:28.429Z,98932.91
2023-02-11T05:11:56.383Z,98927.81
2023-02-11T05:14:24.349Z,98923.23
2023-02-11T05:16:52.420Z,98916.46
2023-02-11T05:19:20.322Z,98912.20
2023-02-11T05:22:01.739Z,98907.12
2023-02-11T05:24:33.082Z,98916.95
2023-02-11T05:27:02.047Z,98927.80
2023-02-11T05:29:29.939Z,98923.05
2023-02-11T05:31:59.150Z,98925.92
2023-02-11T05:34:27.330Z,98936.95
2023-02-11T05:36:55.432Z,98938.30
2023-02-11T05:39:23.364Z,98934.58
2023-02-11T05:41:51.223Z,98939.99
2023-02-11T05:44:19.367Z,98930.83
2023-02-11T05:46:47.332Z,98927.61
2023-02-11T05:49:17.160Z,98903.36
2023-02-11T05:51:45.192Z,98879.94
2023-02-11T05:54:13.290Z,98871.97
2023-02-11T05:56:43.154Z,98866.02
2023-02-11T05:59:14.656Z,98849.43
2023-02-11T06:01:42.858Z,98854.67
2023-02-11T06:04:10.775Z,98854.84
2023-02-11T06:06:38.736Z,98839.40
2023-02-11T06:09:06.576Z,98823.98
2023-02-11T06:11:34.450Z,98821.45
2023-02-11T06:14:02.380Z,98835.70
2023-02-11T06:16:30.405Z,98838.24
2023-02-11T06:18:58.292Z,98835.70
2023-02-11T06:21:36.366Z,98828.40
2023-02-11T06:24:10.659Z,98822.96
2023-02-11T06:26:38.646Z,98821.59
2023-02-11T06:29:06.723Z,98826.66
2023-02-11T06:31:34.732Z,98826.46
2023-02-11T06:34:02.743Z,98832.39
2023-02-11T06:36:31.099Z,98838.13
2023-02-11T06:38:59.171Z,98843.05
2023-02-11T06:41:27.176Z,98836.58
2023-02-11T06:43:55.101Z,98841.80
2023-02-11T06:46:23.078Z,98843.30
2023-02-11T06:48:51.161Z,98841.76
2023-02-11T06:51:18.999Z,98850.05
2023-02-11T06:53:47.786Z,98854.95
2023-02-11T06:56:21.789Z,98863.58
2023-02-11T06:58:54.266Z,98869.65
2023-02-11T07:01:24.552Z,98868.77
2023-02-11T07:03:53.188Z,98860.09
2023-02-11T07:06:24.264Z,98857.00
2023-02-11T07:08:52.222Z,98860.53
2023-02-11T07:11:26.319Z,98862.86
2023-02-11T07:13:56.304Z,98856.52
2023-02-11T07:16:24.474Z,98853.91
2023-02-11T07:18:52.628Z,98853.52
2023-02-11T07:21:22.400Z,98850.42
2023-02-11T07:23:50.835Z,98846.52
2023-02-11T07:26:21.635Z,98841.76
2023-02-11T07:28:50.651Z,98841.08
2023-02-11T07:31:27.438Z,98842.05
2023-02-11T07:33:58.049Z,98840.46
2023-02-11T07:36:27.520Z,98836.02
2023-02-11T07:38:55.509Z,98837.52
2023-02-11T07:41:25.057Z,98838.43
2023-02-11T07:43:53.901Z,98841.14
2023-02-11T07:46:27.275Z,98832.30
2023-02-11T07:48:55.205Z,98824.29
2023-02-11T07:51:26.744Z,98814.91
2023-02-11T07:53:57.302Z,98814.38
2023-02-11T07:56:25.781Z,98813.06
2023-02-11T07:58:54.913Z,98807.05
2023-02-11T08:01:25.584Z,98802.93
2023-02-11T08:03:54.296Z,98798.85
2023-02-11T08:06:24.348Z,98802.38
2023-02-11T08:08:52.274Z,98805.77
2023-02-11T08:11:23.455Z,98812.80
2023-02-11T08:13:52.678Z,98810.55
2023-02-11T08:16:32.518Z,98817.16
2023-02-11T08:19:04.116Z,98809.35
2023-02-11T08:21:32.327Z,98805.83
2023-02-11T08:24:02.519Z,98807.63
2023-02-11T08:26:32.073Z,98814.70
2023-02-11T08:29:00.140Z,98816.45
2023-02-11T08:31:32.856Z,98817.38
2023-02-11T08:34:01.085Z,98807.76
2023-02-11T08:36:31.783Z,98803.62
2023-02-11T08:39:17.581Z,98798.59
2023-02-11T08:41:49.202Z,98802.89
2023-02-11T08:44:19.392Z,98800.09
2023-02-11T08:46:48.006Z,98790.83
2023-02-11T08:49:16.406Z,98788.08
2023-02-11T08:51:44.872Z,98794.75
2023-02-11T08:54:13.166Z,98795.77
2023-02-11T08:56:41.193Z,98797.19
2023-02-11T08:59:12.512Z,98786.13
2023-02-11T09:01:41.018Z,98781.26
2023-02-11T09:04:10.287Z,98791.05
2023-02-11T09:06:38.836Z,98800.21
2023-02-11T09:09:06.861Z,98805.84
2023-02-11T09:11:35.979Z,98809.67
2023-02-11T09:14:07.487Z,98805.03
2023-02-11T09:16:37.547Z,98808.96
2023-02-11T09:19:06.030Z,98817.95
2023-02-11T09:21:33.932Z,98819.98
2023-02-11T09:24:01.891Z,98820.98
2023-02-11T09:26:32.939Z,98822.36
2023-02-11T09:29:01.480Z,98820.58
2023-02-11T09:31:33.812Z,98825.04
2023-02-11T09:34:05.407Z,98829.28
2023-02-11T09:36:39.056Z,98822.09
2023-02-11T09:39:12.238Z,98823.67
2023-02-11T09:42:07.600Z,98828.85
2023-02-11T09:44:37.395Z,98818.73
2023-02-11T09:47:19.918Z,98820.60
2023-02-11T09:49:51.758Z,98808.11
2023-02-11T09:52:57.635Z,98802.10
2023-02-11T09:55:38.695Z,98797.77
2023-02-11T09:58:39.019Z,98795.64
2023-02-11T10:01:44.487Z,98794.98
2023-02-11T10:04:24.464Z,98790.83
2023-02-11T10:06:56.957Z,98793.02
2023-02-11T10:09:57.195Z,98786.02
2023-02-11T10:12:25.532Z,98788.09
2023-02-11T10:15:12.047Z,98783.56
2023-02-11T10:18:03.754Z,98783.20
2023-02-11T10:20:44.361Z,98775.89
2023-02-11T10:23:25.712Z,98758.39
2023-02-11T10:25:56.100Z,98747.34
2023-02-11T10:28:31.840Z,98738.15
2023-02-11T10:31:03.836Z,98724.26
2023-02-11T10:33:37.857Z,98712.12
2023-02-11T10:36:06.241Z,98700.25
2023-02-11T10:38:34.464Z,98685.30
2023-02-11T10:41:02.474Z,98673.65
2023-02-11T10:43:32.661Z,98662.60
2023-02-11T10:46:04.888Z,98650.05
2023-02-11T10:48:37.748Z,98637.27
2023-02-11T10:51:24.496Z,98625.54
2023-02-11T10:54:18.683Z,98621.41
2023-02-11T10:56:49.803Z,98615.90
2023-02-11T10:59:23.861Z,98621.46
2023-02-11T11:01:56.693Z,98622.45
2023-02-11T11:04:30.929Z,98628.33
2023-02-11T11:07:24.943Z,98646.61
2023-02-11T11:09:58.012Z,98654.43
2023-02-11T11:12:28.439Z,98656.17
2023-02-11T11:15:04.033Z,98659.39
2023-02-11T11:17:32.050Z,98659.84
2023-02-11T11:20:24.589Z,98657.75
2023-02-11T11:23:09.104Z,98658.25
2023-02-11T11:25:41.282Z,98650.59
2023-02-11T11:28:21.000Z,98650.16
2023-02-11T11:30:52.885Z,98662.34
2023-02-11T11:33:34.700Z,98653.33
2023-02-11T11:36:10.526Z,98658.16
2023-02-11T11:38:45.816Z,98660.84
2023-02-11T11:41:24.940Z,98669.02
2023-02-11T11:43:59.069Z,98660.37
2023-02-11T11:46:41.140Z,98656.49
2023-02-11T11:49:14.868Z,98659.26
2023-02-11T11:51:51.403Z,98653.82
2023-02-11T11:54:20.562Z,98649.71
2023-02-11T11:57:00.859Z,98643.52
2023-02-11T11:59:29.371Z,98646.84
2023-02-11T12:02:34.898Z,98647.86
2023-02-11T12:05:41.915Z,98654.92
2023-02-11T12:08:22.409Z,98649.56
2023-02-11T12:11:02.849Z,98649.88
2023-02-11T12:13:57.882Z,98646.57
2023-02-11T12:16:33.658Z,98652.53
2023-02-11T12:19:04.619Z,98652.83
2023-02-11T12:21:38.921Z,98647.20
2023-02-11T12:24:18.915Z,98641.42
2023-02-11T12:26:54.419Z,98643.52
2023-02-11T12:29:55.541Z,98637.21
2023-02-11T12:32:32.382Z,98641.63
2023-02-11T12:35:22.416Z,98625.35
2023-02-11T12:38:12.264Z,98595.65
2023-02-11T12:40:53.425Z,98609.13
2023-02-11T12:43:45.143Z,98595.95
2023-02-11T12:46:43.060Z,98595.88
2023-02-11T12:49:34.754Z,98601.14
2023-02-11T12:52:17.343Z,98596.46
2023-02-11T12:55:19.286Z,98565.81
2023-02-11T12:57:52.636Z,98587.03
2023-02-11T13:00:31.495Z,98605.70
2023-02-11T13:03:11.409Z,98612.10
2023-02-11T13:05:39.480Z,98604.63
2023-02-11T13:08:31.024Z,98599.84
2023-02-11T13:11:03.309Z,98578.60
2023-02-11T13:13:47.318Z,98567.54
2023-02-11T13:16:33.977Z,98567.22
2023-02-11T13:19:38.220Z,98570.42
2023-02-11T13:22:31.857Z,98573.80
2023-02-11T13:25:07.406Z,98553.84
2023-02-11T13:28:00.287Z,98531.69
2023-02-11T13:30:29.167Z,98508.94
2023-02-11T13:32:57.161Z,98495.92
2023-02-11T13:35:49.662Z,98501.61
2023-02-11T13:38:30.525Z,98515.71
2023-02-11T13:41:03.385Z,98520.05
2023-02-11T13:43:34.423Z,98523.33
2023-02-11T13:46:09.033Z,98529.60
2023-02-11T13:48:45.566Z,98531.17
2023-02-11T13:51:17.167Z,98538.77
2023-02-11T13:53:50.369Z,98544.83
2023-02-11T13:56:33.949Z,98553.11
2023-02-11T13:59:25.432Z,98555.73
2023-02-11T14:01:54.330Z,98571.88
2023-02-11T14:04:26.054Z,98579.57
2023-02-11T14:07:31.599Z,98581.70
2023-02-11T14:09:59.739Z,98577.80
2023-02-11T14:12:34.107Z,98577.33
2023-02-11T14:15:07.713Z,98578.58
2023-02-11T14:17:36.289Z,98592.33
2023-02-11T14:20:35.840Z,98594.52
2023-02-11T14:23:04.569Z,98591.88
2023-02-11T14:25:32.674Z,98588.54
2023-02-11T14:28:18.678Z,98592.36
2023-02-11T14:30:46.921Z,98590.55
2023-02-11T14:33:41.329Z,98595.55
2023-02-11T14:36:23.898Z,98598.27
2023-02-11T14:39:10.753Z,98598.80
2023-02-11T14:41:44.395Z,98606.30
2023-02-11T14:44:23.515Z,98607.56
2023-02-11T14:46:54.053Z,98596.70
2023-02-11T14:49:27.684Z,98591.45
2023-02-11T14:51:58.145Z,98594.92
2023-02-11T14:54:28.880Z,98594.82
2023-02-11T14:57:18.397Z,98597.59
2023-02-11T15:00:20.426Z,98591.31
2023-02-11T15:02:49.080Z,98596.13
2023-02-11T15:05:24.778Z,98590.36
2023-02-11T15:08:02.478Z,98594.48
2023-02-11T15:10:41.039Z,98602.38
2023-02-11T15:13:15.215Z,98600.66
2023-02-11T15:15:44.651Z,98594.18
2023-02-11T15:18:22.490Z,98595.54
2023-02-11T15:20:51.475Z,98601.48
2023-02-11T15:23:25.304Z,98608.67
2023-02-11T15:25:53.334Z,98607.33
2023-02-11T15:28:27.897Z,98611.58
2023-02-11T15:31:15.538Z,98606.27
2023-02-11T15:33:43.932Z,98609.53
2023-02-11T15:36:14.479Z,98617.94
2023-02-11T15:38:43.069Z,98618.11
2023-02-11T15:41:37.167Z,98619.31
2023-02-11T15:44:05.529Z,98613.05
2023-02-11T15:46:43.239Z,98615.45
2023-02-11T15:49:16.545Z,98622.67
2023-02-11T15:51:46.454Z,98623.72
2023-02-11T15:54:21.261Z,98623.29
2023-02-11T15:56:53.780Z,98627.92
2023-02-11T15:59:32.965Z,98624.73
2023-02-11T16:02:09.270Z,98623.91
2023-02-11T16:04:38.158Z,98627.86
2023-02-11T16:07:06.421Z,98628.05
2023-02-11T16:09:36.277Z,98628.23
2023-02-11T16:12:26.423Z,98630.31
2023-02-11T16:14:54.665Z,98638.16
2023-02-11T16:17:28.167Z,98635.78
2023-02-11T16:19:56.757Z,98632.91
2023-02-11T16:22:28.909Z,98633.63
2023-02-11T16:25:00.350Z,98638.59
2023-02-11T16:27:37.024Z,98637.77
2023-02-11T16:30:06.542Z,98639.99
2023-02-11T16:32:34.649Z,98633.67
2023-02-11T16:35:11.389Z,98647.67
2023-02-11T16:37:39.686Z,98651.95
2023-02-11T16:40:09.142Z,98656.20
2023-02-11T16:42:37.539Z,98654.83
2023-02-11T16:45:09.045Z,98659.72
2023-02-11T16:47:37.598Z,98655.45
2023-02-11T16:50:08.772Z,98653.38
2023-02-11T16:52:37.936Z,98658.44
2023-02-11T16:55:06.238Z,98665.42
2023-02-11T16:57:35.256Z,98660.46
2023-02-11T17:00:04.904Z,98660.58
2023-02-11T17:02:39.415Z,98660.56
2023-02-11T17:05:18.533Z,98656.75
2023-02-11T17:07:48.481Z,98661.80
2023-02-11T17:10:26.924Z,98662.25
2023-02-11T17:12:57.039Z,98662.04
2023-02-11T17:15:26.659Z,98665.25
2023-02-11T17:17:56.048Z,98663.70
2023-02-11T17:20:28.724Z,98671.18
2023-02-11T17:22:58.688Z,98675.13
2023-02-11T17:25:30.005Z,98669.49
2023-02-11T17:28:02.648Z,98672.73
2023-02-11T17:30:35.969Z,98670.89
2023-02-11T17:33:04.778Z,98674.96
2023-02-11T17:35:32.827Z,98674.80
2023-02-11T17:38:01.071Z,98665.77
2023-02-11T17:40:29.682Z,98668.32
2023-02-11T17:43:27.848Z,98671.09
2023-02-11T17:45:55.949Z,98670.42
2023-02-11T17:48:24.834Z,98668.89
2023-02-11T17:50:52.700Z,98665.84
2023-02-11T17:53:20.666Z,98665.48
2023-02-11T17:55:49.093Z,98668.17
2023-02-11T17:58:17.281Z,98670.90
2023-02-11T18:00:46.268Z,98663.89
2023-02-11T18:03:14.469Z,98662.36
2023-02-11T18:05:42.636Z,98668.98
2023-02-11T18:08:10.890Z,98667.72
2023-02-11T18:10:41.947Z,98665.41
2023-02-11T18:13:10.031Z,98669.98
2023-02-11T18:15:37.996Z,98673.54
2023-02-11T18:18:06.169Z,98672.14
2023-02-11T18:20:34.108Z,98670.56
2023-02-11T18:23:02.165Z,98675.98
2023-02-11T18:25:30.192Z,98682.40
2023-02-11T18:27:58.271Z,98683.21
2023-02-11T18:30:28.694Z,98684.70
2023-02-11T18:32:56.871Z,98690.51
2023-02-11T18:35:25.166Z,98691.39
2023-02-11T18:37:53.687Z,98695.80
2023-02-11T18:40:22.068Z,98687.07
2023-02-11T18:42:50.589Z,98687.00
2023-02-11T18:45:19.153Z,98691.59
2023-02-11T18:47:48.753Z,98700.13
2023-02-11T18:50:18.981Z,98700.61
2023-02-11T18:52:48.126Z,98706.73
2023-02-11T18:55:16.581Z,98701.92
2023-02-11T18:57:44.877Z,98702.60
2023-02-11T19:00:14.007Z,98706.17
2023-02-11T19:02:42.172Z,98706.61
2023-02-11T19:05:10.792Z,98712.53
2023-02-11T19:07:38.917Z,98712.13
2023-02-11T19:10:08.337Z,98715.71
2023-02-11T19:12:36.374Z,98719.27
2023-02-11T19:15:06.833Z,98716.33
2023-02-11T19:17:35.518Z,98716.27
2023-02-11T19:20:04.229Z,98717.43
2023-02-11T19:22:32.560Z,98727.64
2023-02-11T19:25:01.119Z,98727.60
2023-02-11T19:27:29.469Z,98726.52
2023-02-11T19:29:58.271Z,98728.89
2023-02-11T19:32:28.214Z,98723.77
2023-02-11T19:34:56.995Z,98728.20
2023-02-11T19:37:25.482Z,98734.81
2023-02-11T19:39:53.665Z,98733.10
2023-02-11T19:42:21.971Z,98733.27
2023-02-11T19:44:50.428Z,98733.46
2023-02-11T19:50:41.434Z,98731.35
2023-02-11T19:53:24.781Z,98736.09
2023-02-11T19:55:54.025Z,98733.36
2023-02-11T19:58:22.410Z,98735.88
2023-02-11T20:00:50.709Z,98734.14
2023-02-11T20:03:20.129Z,98733.09
2023-02-11T20:05:48.764Z,98730.69
2023-02-11T20:08:17.110Z,98733.25
2023-02-11T20:10:45.877Z,98734.27
2023-02-11T20:13:14.726Z,98733.41
2023-02-11T20:15:42.791Z,98735.61
2023-02-11T20:18:11.083Z,98732.73
2023-02-11T20:20:39.461Z,98730.30
2023-02-11T20:23:07.608Z,98729.80
2023-02-11T20:25:40.674Z,98734.04
2023-02-11T20:28:09.251Z,98736.54
2023-02-11T20:30:37.780Z,98745.02
2023-02-11T20:33:05.799Z,98739.69
2023-02-11T20:35:34.043Z,98745.27
2023-02-11T20:38:02.436Z,98742.35
2023-02-11T20:40:30.904Z,98744.55
2023-02-11T20:43:01.430Z,98743.70
2023-02-11T20:45:29.437Z,98747.78
2023-02-11T20:47:57.619Z,98751.21
2023-02-11T20:50:25.819Z,98758.34
2023-02-11T20:52:54.309Z,98764.94
2023-02-11T20:55:22.433Z,98765.08
2023-02-11T20:57:53.273Z,98769.83
2023-02-11T21:00:21.489Z,98769.13
2023-02-11T21:02:57.143Z,98770.40
2023-02-11T21:05:25.761Z,98770.60
2023-02-11T21:07:58.002Z,98774.33
2023-02-11T21:10:26.268Z,98778.01
2023-02-11T21:12:54.541Z,98775.79
2023-02-11T21:15:23.615Z,98776.11
2023-02-11T21:17:53.344Z,98780.87
2023-02-11T21:20:21.704Z,98781.02
2023-02-11T21:22:50.473Z,98784.39
2023-02-11T21:25:18.628Z,98790.54
2023-02-11T21:27:46.935Z,98790.48
2023-02-11T21:30:15.209Z,98791.86
2023-02-11T21:32:43.459Z,98795.08
2023-02-11T21:35:11.750Z,98797.96
2023-02-11T21:37:39.950Z,98800.98
2023-02-11T21:40:08.971Z,98808.30
2023-02-11T21:42:37.393Z,98813.39
2023-02-11T21:45:06.613Z,98809.10
2023-02-11T21:47:34.704Z,98811.48
2023-02-11T21:50:05.804Z,98819.34
2023-02-11T21:52:33.846Z,98822.80
2023-02-11T21:55:02.053Z,98823.19
2023-02-11T21:57:30.322Z,98827.31
2023-02-11T21:59:58.276Z,98833.43
2023-02-11T22:02:26.735Z,98832.03
2023-02-11T22:08:08.342Z,98835.48
2023-02-11T22:10:36.297Z,98836.35
2023-02-11T22:13:04.300Z,98830.20
2023-02-11T22:15:32.303Z,98832.70
2023-02-11T22:18:00.262Z,98834.71
2023-02-11T22:20:28.222Z,98834.90
2023-02-11T22:22:56.140Z,98840.91
2023-02-11T22:25:24.013Z,98843.98
2023-02-11T22:27:51.911Z,98852.67
2023-02-11T22:30:20.001Z,98858.65
2023-02-11T22:32:48.529Z,98863.23
2023-02-11T22:35:16.427Z,98866.81
2023-02-11T22:37:44.357Z,98860.63
2023-02-11T22:40:12.977Z,98866.40
2023-02-11T22:42:40.896Z,98870.67
2023-02-11T22:45:09.812Z,98881.09
2023-02-11T22:47:37.753Z,98887.39
2023-02-11T22:50:06.563Z,98885.81
2023-02-11T22:52:37.454Z,98889.39
2023-02-11T22:55:05.863Z,98889.04
2023-02-11T22:57:33.814Z,98893.86
2023-02-11T23:00:01.811Z,98893.36
2023-02-11T23:02:31.585Z,98892.98
2023-02-11T23:04:59.510Z,98898.10
2023-02-11T23:07:27.578Z,98896.51
2023-02-11T23:09:55.524Z,98900.43
2023-02-11T23:12:23.394Z,98897.39
2023-02-11T23:14:51.384Z,98898.96
2023-02-11T23:17:19.496Z,98898.42
2023-02-11T23:19:47.438Z,98900.81
2023-02-11T23:22:15.391Z,98903.23
2023-02-11T23:24:43.279Z,98903.90
2023-02-11T23:27:11.192Z,98905.08
2023-02-11T23:29:39.402Z,98908.86
2023-02-11T23:32:07.511Z,98908.30
2023-02-11T23:34:35.371Z,98910.83
2023-02-11T23:37:03.356Z,98909.98
2023-02-11T23:39:31.545Z,98911.83
2023-02-11T23:41:59.433Z,98907.23
2023-02-11T23:44:27.970Z,98908.60
2023-02-11T23:46:55.935Z,98910.02
2023-02-11T23:49:23.787Z,98912.58
2023-02-11T23:51:51.690Z,98914.11
2023-02-11T23:54:19.826Z,98917.17
2023-02-11T23:56:47.762Z,98921.76
2023-02-11T23:59:15.693Z,98919.50
